sensor_id;sensor_type;location;lat;lon;timestamp;P1;durP1;ratioP1;P2;durP2;ratioP2
66112;SDS011;52893;52.870;5.822;2023-12-04T00:01:15;16.95;;;7.60;;
66112;SDS011;52893;52.870;5.822;2023-12-04T00:03:42;16.15;;;7.63;;
66112;SDS011;52893;52.870;5.822;2023-12-04T00:06:10;10.35;;;6.03;;
66112;SDS011;52893;52.870;5.822;2023-12-04T00:08:38;9.50;;;4.97;;
66112;SDS011;52893;52.870;5.822;2023-12-04T00:11:05;7.88;;;4.50;;
66112;SDS011;52893;52.870;5.822;2023-12-04T00:13:33;12.95;;;6.35;;
66112;SDS011;52893;52.870;5.822;2023-12-04T00:16:01;10.30;;;6.25;;
66112;SDS011;52893;52.870;5.822;2023-12-04T00:18:30;8.82;;;4.80;;
66112;SDS011;52893;52.870;5.822;2023-12-04T00:20:57;11.13;;;5.13;;
66112;SDS011;52893;52.870;5.822;2023-12-04T00:23:24;9.10;;;4.97;;
66112;SDS011;52893;52.870;5.822;2023-12-04T00:25:53;9.07;;;3.95;;
66112;SDS011;52893;52.870;5.822;2023-12-04T00:28:21;10.52;;;4.97;;
66112;SDS011;52893;52.870;5.822;2023-12-04T00:30:49;7.13;;;4.20;;
66112;SDS011;52893;52.870;5.822;2023-12-04T00:33:16;11.70;;;5.07;;
66112;SDS011;52893;52.870;5.822;2023-12-04T00:35:45;12.90;;;6.35;;
66112;SDS011;52893;52.870;5.822;2023-12-04T00:38:12;9.73;;;5.28;;
66112;SDS011;52893;52.870;5.822;2023-12-04T00:40:39;8.48;;;4.53;;
66112;SDS011;52893;52.870;5.822;2023-12-04T00:43:07;21.60;;;9.20;;
66112;SDS011;52893;52.870;5.822;2023-12-04T00:45:34;14.07;;;7.43;;
66112;SDS011;52893;52.870;5.822;2023-12-04T00:48:01;10.45;;;4.93;;
66112;SDS011;52893;52.870;5.822;2023-12-04T00:50:29;7.85;;;4.88;;
66112;SDS011;52893;52.870;5.822;2023-12-04T00:52:57;11.57;;;4.30;;
66112;SDS011;52893;52.870;5.822;2023-12-04T00:55:25;18.83;;;7.10;;
66112;SDS011;52893;52.870;5.822;2023-12-04T00:57:52;16.20;;;6.13;;
66112;SDS011;52893;52.870;5.822;2023-12-04T01:00:19;16.02;;;9.75;;
66112;SDS011;52893;52.870;5.822;2023-12-04T01:02:47;17.95;;;7.07;;
66112;SDS011;52893;52.870;5.822;2023-12-04T01:05:14;14.50;;;8.75;;
66112;SDS011;52893;52.870;5.822;2023-12-04T01:07:42;20.00;;;10.07;;
66112;SDS011;52893;52.870;5.822;2023-12-04T01:10:11;18.00;;;8.10;;
66112;SDS011;52893;52.870;5.822;2023-12-04T01:12:38;20.33;;;9.68;;
66112;SDS011;52893;52.870;5.822;2023-12-04T01:15:06;12.20;;;7.43;;
66112;SDS011;52893;52.870;5.822;2023-12-04T01:17:35;16.85;;;7.18;;
66112;SDS011;52893;52.870;5.822;2023-12-04T01:20:02;19.17;;;8.43;;
66112;SDS011;52893;52.870;5.822;2023-12-04T01:22:31;21.13;;;9.48;;
66112;SDS011;52893;52.870;5.822;2023-12-04T01:24:58;13.85;;;6.50;;
66112;SDS011;52893;52.870;5.822;2023-12-04T01:27:27;14.40;;;7.68;;
66112;SDS011;52893;52.870;5.822;2023-12-04T01:29:54;24.13;;;10.95;;
66112;SDS011;52893;52.870;5.822;2023-12-04T01:32:22;25.23;;;12.30;;
66112;SDS011;52893;52.870;5.822;2023-12-04T01:34:49;16.25;;;9.02;;
66112;SDS011;52893;52.870;5.822;2023-12-04T01:37:17;19.58;;;10.02;;
66112;SDS011;52893;52.870;5.822;2023-12-04T01:39:44;15.88;;;8.15;;
66112;SDS011;52893;52.870;5.822;2023-12-04T01:42:12;22.80;;;10.43;;
66112;SDS011;52893;52.870;5.822;2023-12-04T01:44:41;14.35;;;7.18;;
66112;SDS011;52893;52.870;5.822;2023-12-04T01:47:08;18.38;;;9.23;;
66112;SDS011;52893;52.870;5.822;2023-12-04T01:49:36;19.55;;;8.32;;
66112;SDS011;52893;52.870;5.822;2023-12-04T01:52:04;23.42;;;10.82;;
66112;SDS011;52893;52.870;5.822;2023-12-04T01:54:32;26.83;;;12.93;;
66112;SDS011;52893;52.870;5.822;2023-12-04T01:56:59;24.30;;;11.98;;
66112;SDS011;52893;52.870;5.822;2023-12-04T01:59:29;23.30;;;9.52;;
66112;SDS011;52893;52.870;5.822;2023-12-04T02:01:58;18.20;;;9.15;;
66112;SDS011;52893;52.870;5.822;2023-12-04T02:04:26;20.95;;;10.10;;
66112;SDS011;52893;52.870;5.822;2023-12-04T02:06:53;20.13;;;9.70;;
66112;SDS011;52893;52.870;5.822;2023-12-04T02:09:21;24.77;;;11.95;;
66112;SDS011;52893;52.870;5.822;2023-12-04T02:11:48;29.23;;;13.90;;
66112;SDS011;52893;52.870;5.822;2023-12-04T02:14:16;29.10;;;12.23;;
66112;SDS011;52893;52.870;5.822;2023-12-04T02:16:44;34.30;;;15.07;;
66112;SDS011;52893;52.870;5.822;2023-12-04T02:19:14;19.35;;;9.40;;
66112;SDS011;52893;52.870;5.822;2023-12-04T02:21:43;24.25;;;10.20;;
66112;SDS011;52893;52.870;5.822;2023-12-04T02:24:12;26.77;;;13.07;;
66112;SDS011;52893;52.870;5.822;2023-12-04T02:26:42;21.88;;;8.88;;
66112;SDS011;52893;52.870;5.822;2023-12-04T02:29:23;27.75;;;11.45;;
66112;SDS011;52893;52.870;5.822;2023-12-04T02:31:57;17.38;;;8.18;;
66112;SDS011;52893;52.870;5.822;2023-12-04T02:34:26;27.50;;;11.43;;
66112;SDS011;52893;52.870;5.822;2023-12-04T02:36:56;13.18;;;7.13;;
66112;SDS011;52893;52.870;5.822;2023-12-04T02:39:27;27.08;;;9.43;;
66112;SDS011;52893;52.870;5.822;2023-12-04T02:41:55;22.95;;;10.43;;
66112;SDS011;52893;52.870;5.822;2023-12-04T02:44:22;18.10;;;8.93;;
66112;SDS011;52893;52.870;5.822;2023-12-04T02:46:50;18.63;;;8.05;;
66112;SDS011;52893;52.870;5.822;2023-12-04T02:49:18;19.92;;;7.70;;
66112;SDS011;52893;52.870;5.822;2023-12-04T02:51:45;9.93;;;5.43;;
66112;SDS011;52893;52.870;5.822;2023-12-04T02:54:13;17.08;;;8.55;;
66112;SDS011;52893;52.870;5.822;2023-12-04T02:56:42;17.52;;;7.00;;
66112;SDS011;52893;52.870;5.822;2023-12-04T02:59:10;18.95;;;8.32;;
66112;SDS011;52893;52.870;5.822;2023-12-04T03:01:37;33.67;;;11.57;;
66112;SDS011;52893;52.870;5.822;2023-12-04T03:04:05;20.35;;;9.10;;
66112;SDS011;52893;52.870;5.822;2023-12-04T03:06:32;21.88;;;8.68;;
66112;SDS011;52893;52.870;5.822;2023-12-04T03:09:00;11.27;;;5.85;;
66112;SDS011;52893;52.870;5.822;2023-12-04T03:11:27;19.17;;;8.38;;
66112;SDS011;52893;52.870;5.822;2023-12-04T03:13:57;8.95;;;4.40;;
66112;SDS011;52893;52.870;5.822;2023-12-04T03:16:25;8.90;;;4.38;;
66112;SDS011;52893;52.870;5.822;2023-12-04T03:18:53;17.58;;;6.45;;
66112;SDS011;52893;52.870;5.822;2023-12-04T03:21:21;14.68;;;6.10;;
66112;SDS011;52893;52.870;5.822;2023-12-04T03:23:48;11.60;;;5.90;;
66112;SDS011;52893;52.870;5.822;2023-12-04T03:26:16;11.50;;;5.32;;
66112;SDS011;52893;52.870;5.822;2023-12-04T03:28:44;14.27;;;3.72;;
66112;SDS011;52893;52.870;5.822;2023-12-04T03:31:12;22.35;;;7.13;;
66112;SDS011;52893;52.870;5.822;2023-12-04T03:33:40;13.25;;;4.35;;
66112;SDS011;52893;52.870;5.822;2023-12-04T03:36:07;9.75;;;4.65;;
66112;SDS011;52893;52.870;5.822;2023-12-04T03:38:35;13.50;;;5.18;;
66112;SDS011;52893;52.870;5.822;2023-12-04T03:41:03;6.05;;;3.92;;
66112;SDS011;52893;52.870;5.822;2023-12-04T03:43:31;18.52;;;6.68;;
66112;SDS011;52893;52.870;5.822;2023-12-04T03:45:58;13.00;;;5.60;;
66112;SDS011;52893;52.870;5.822;2023-12-04T03:48:27;12.82;;;4.15;;
66112;SDS011;52893;52.870;5.822;2023-12-04T03:50:56;13.52;;;5.22;;
66112;SDS011;52893;52.870;5.822;2023-12-04T03:53:23;13.55;;;6.72;;
66112;SDS011;52893;52.870;5.822;2023-12-04T03:55:51;11.45;;;5.63;;
66112;SDS011;52893;52.870;5.822;2023-12-04T03:58:18;12.85;;;6.07;;
66112;SDS011;52893;52.870;5.822;2023-12-04T04:00:46;15.63;;;6.47;;
66112;SDS011;52893;52.870;5.822;2023-12-04T04:03:13;13.05;;;6.80;;
66112;SDS011;52893;52.870;5.822;2023-12-04T04:05:42;7.97;;;3.80;;
66112;SDS011;52893;52.870;5.822;2023-12-04T04:08:10;15.57;;;7.13;;
66112;SDS011;52893;52.870;5.822;2023-12-04T04:10:37;12.63;;;5.13;;
66112;SDS011;52893;52.870;5.822;2023-12-04T04:13:05;13.82;;;5.80;;
66112;SDS011;52893;52.870;5.822;2023-12-04T04:15:32;16.08;;;5.53;;
66112;SDS011;52893;52.870;5.822;2023-12-04T04:18:00;7.25;;;4.10;;
66112;SDS011;52893;52.870;5.822;2023-12-04T04:20:27;21.67;;;8.77;;
66112;SDS011;52893;52.870;5.822;2023-12-04T04:22:59;18.58;;;7.53;;
66112;SDS011;52893;52.870;5.822;2023-12-04T04:25:26;18.58;;;6.30;;
66112;SDS011;52893;52.870;5.822;2023-12-04T04:27:53;11.60;;;4.88;;
66112;SDS011;52893;52.870;5.822;2023-12-04T04:30:21;7.95;;;4.20;;
66112;SDS011;52893;52.870;5.822;2023-12-04T04:32:48;15.45;;;6.38;;
66112;SDS011;52893;52.870;5.822;2023-12-04T04:35:16;13.35;;;3.92;;
66112;SDS011;52893;52.870;5.822;2023-12-04T04:37:43;10.75;;;4.63;;
66112;SDS011;52893;52.870;5.822;2023-12-04T04:40:12;14.18;;;6.70;;
66112;SDS011;52893;52.870;5.822;2023-12-04T04:42:40;11.93;;;5.28;;
66112;SDS011;52893;52.870;5.822;2023-12-04T04:45:07;9.27;;;5.30;;
66112;SDS011;52893;52.870;5.822;2023-12-04T04:47:36;5.00;;;2.55;;
66112;SDS011;52893;52.870;5.822;2023-12-04T04:50:03;15.88;;;4.95;;
66112;SDS011;52893;52.870;5.822;2023-12-04T04:52:31;10.52;;;4.43;;
66112;SDS011;52893;52.870;5.822;2023-12-04T04:54:58;7.32;;;3.28;;
66112;SDS011;52893;52.870;5.822;2023-12-04T04:57:28;10.38;;;5.65;;
66112;SDS011;52893;52.870;5.822;2023-12-04T04:59:57;8.57;;;3.95;;
66112;SDS011;52893;52.870;5.822;2023-12-04T05:02:25;4.22;;;2.53;;
66112;SDS011;52893;52.870;5.822;2023-12-04T05:04:53;11.88;;;5.03;;
66112;SDS011;52893;52.870;5.822;2023-12-04T05:07:21;9.63;;;4.05;;
66112;SDS011;52893;52.870;5.822;2023-12-04T05:09:48;10.00;;;3.92;;
66112;SDS011;52893;52.870;5.822;2023-12-04T05:12:16;10.10;;;5.15;;
66112;SDS011;52893;52.870;5.822;2023-12-04T05:14:45;9.00;;;3.60;;
66112;SDS011;52893;52.870;5.822;2023-12-04T05:17:12;11.55;;;4.07;;
66112;SDS011;52893;52.870;5.822;2023-12-04T05:19:40;7.15;;;4.05;;
66112;SDS011;52893;52.870;5.822;2023-12-04T05:22:07;8.20;;;4.55;;
66112;SDS011;52893;52.870;5.822;2023-12-04T05:24:36;15.75;;;5.63;;
66112;SDS011;52893;52.870;5.822;2023-12-04T05:27:04;9.63;;;3.75;;
66112;SDS011;52893;52.870;5.822;2023-12-04T05:29:32;8.85;;;3.35;;
66112;SDS011;52893;52.870;5.822;2023-12-04T05:32:00;7.53;;;3.92;;
66112;SDS011;52893;52.870;5.822;2023-12-04T05:34:28;10.70;;;5.22;;
66112;SDS011;52893;52.870;5.822;2023-12-04T05:36:55;8.65;;;4.63;;
66112;SDS011;52893;52.870;5.822;2023-12-04T05:39:22;13.65;;;5.63;;
66112;SDS011;52893;52.870;5.822;2023-12-04T05:41:50;8.75;;;5.03;;
66112;SDS011;52893;52.870;5.822;2023-12-04T05:44:17;13.85;;;5.57;;
66112;SDS011;52893;52.870;5.822;2023-12-04T05:46:45;8.35;;;5.32;;
66112;SDS011;52893;52.870;5.822;2023-12-04T05:49:14;7.97;;;3.72;;
66112;SDS011;52893;52.870;5.822;2023-12-04T05:51:41;3.38;;;1.90;;
66112;SDS011;52893;52.870;5.822;2023-12-04T05:54:09;6.47;;;3.45;;
66112;SDS011;52893;52.870;5.822;2023-12-04T05:56:36;7.63;;;3.95;;
66112;SDS011;52893;52.870;5.822;2023-12-04T05:59:03;6.13;;;2.67;;
66112;SDS011;52893;52.870;5.822;2023-12-04T06:01:31;9.57;;;3.70;;
66112;SDS011;52893;52.870;5.822;2023-12-04T06:03:58;5.35;;;2.35;;
66112;SDS011;52893;52.870;5.822;2023-12-04T06:06:27;4.53;;;2.20;;
66112;SDS011;52893;52.870;5.822;2023-12-04T06:08:55;9.07;;;3.63;;
66112;SDS011;52893;52.870;5.822;2023-12-04T06:11:22;10.63;;;3.63;;
66112;SDS011;52893;52.870;5.822;2023-12-04T06:13:50;5.28;;;2.80;;
66112;SDS011;52893;52.870;5.822;2023-12-04T06:16:17;11.30;;;4.95;;
66112;SDS011;52893;52.870;5.822;2023-12-04T06:18:44;9.07;;;3.83;;
66112;SDS011;52893;52.870;5.822;2023-12-04T06:21:12;7.82;;;3.58;;
66112;SDS011;52893;52.870;5.822;2023-12-04T06:23:42;9.63;;;4.28;;
66112;SDS011;52893;52.870;5.822;2023-12-04T06:26:11;15.13;;;6.68;;
66112;SDS011;52893;52.870;5.822;2023-12-04T06:28:39;7.57;;;3.55;;
66112;SDS011;52893;52.870;5.822;2023-12-04T06:31:09;19.35;;;8.98;;
66112;SDS011;52893;52.870;5.822;2023-12-04T06:33:37;8.82;;;4.28;;
66112;SDS011;52893;52.870;5.822;2023-12-04T06:38:34;10.90;;;4.03;;
66112;SDS011;52893;52.870;5.822;2023-12-04T06:41:09;7.82;;;3.60;;
66112;SDS011;52893;52.870;5.822;2023-12-04T06:43:39;7.20;;;3.60;;
66112;SDS011;52893;52.870;5.822;2023-12-04T06:46:07;8.90;;;3.45;;
66112;SDS011;52893;52.870;5.822;2023-12-04T06:48:35;6.68;;;3.08;;
66112;SDS011;52893;52.870;5.822;2023-12-04T06:51:03;11.23;;;5.22;;
66112;SDS011;52893;52.870;5.822;2023-12-04T06:53:31;6.53;;;3.30;;
66112;SDS011;52893;52.870;5.822;2023-12-04T06:55:59;7.10;;;4.15;;
66112;SDS011;52893;52.870;5.822;2023-12-04T06:58:27;10.15;;;4.10;;
66112;SDS011;52893;52.870;5.822;2023-12-04T07:00:55;11.25;;;5.35;;
66112;SDS011;52893;52.870;5.822;2023-12-04T07:03:22;8.52;;;3.55;;
66112;SDS011;52893;52.870;5.822;2023-12-04T07:05:50;8.40;;;3.80;;
66112;SDS011;52893;52.870;5.822;2023-12-04T07:08:18;6.47;;;2.70;;
66112;SDS011;52893;52.870;5.822;2023-12-04T07:10:46;7.47;;;3.40;;
66112;SDS011;52893;52.870;5.822;2023-12-04T07:13:13;6.82;;;3.58;;
66112;SDS011;52893;52.870;5.822;2023-12-04T07:15:43;8.05;;;3.95;;
66112;SDS011;52893;52.870;5.822;2023-12-04T07:18:10;7.22;;;2.53;;
66112;SDS011;52893;52.870;5.822;2023-12-04T07:20:38;10.18;;;4.35;;
66112;SDS011;52893;52.870;5.822;2023-12-04T07:23:05;6.35;;;3.55;;
66112;SDS011;52893;52.870;5.822;2023-12-04T07:25:33;9.68;;;3.97;;
66112;SDS011;52893;52.870;5.822;2023-12-04T07:28:00;11.30;;;3.67;;
66112;SDS011;52893;52.870;5.822;2023-12-04T07:30:28;11.50;;;5.10;;
66112;SDS011;52893;52.870;5.822;2023-12-04T07:32:57;8.00;;;3.72;;
66112;SDS011;52893;52.870;5.822;2023-12-04T07:35:25;10.90;;;3.95;;
66112;SDS011;52893;52.870;5.822;2023-12-04T07:37:52;3.35;;;2.13;;
66112;SDS011;52893;52.870;5.822;2023-12-04T07:40:20;8.02;;;3.10;;
66112;SDS011;52893;52.870;5.822;2023-12-04T07:42:48;6.22;;;2.85;;
66112;SDS011;52893;52.870;5.822;2023-12-04T07:45:16;4.50;;;2.22;;
66112;SDS011;52893;52.870;5.822;2023-12-04T07:47:43;8.32;;;2.85;;
66112;SDS011;52893;52.870;5.822;2023-12-04T07:50:12;9.15;;;3.63;;
66112;SDS011;52893;52.870;5.822;2023-12-04T07:52:40;8.80;;;3.70;;
66112;SDS011;52893;52.870;5.822;2023-12-04T07:55:07;7.13;;;4.05;;
66112;SDS011;52893;52.870;5.822;2023-12-04T07:57:35;5.88;;;3.28;;
66112;SDS011;52893;52.870;5.822;2023-12-04T08:00:03;6.15;;;3.22;;
66112;SDS011;52893;52.870;5.822;2023-12-04T08:02:31;9.30;;;3.92;;
66112;SDS011;52893;52.870;5.822;2023-12-04T08:04:58;6.90;;;3.22;;
66112;SDS011;52893;52.870;5.822;2023-12-04T08:07:28;5.10;;;2.15;;
66112;SDS011;52893;52.870;5.822;2023-12-04T08:09:55;10.98;;;3.50;;
66112;SDS011;52893;52.870;5.822;2023-12-04T08:12:22;4.55;;;2.65;;
66112;SDS011;52893;52.870;5.822;2023-12-04T08:14:50;3.35;;;2.65;;
66112;SDS011;52893;52.870;5.822;2023-12-04T08:17:17;5.45;;;2.13;;
66112;SDS011;52893;52.870;5.822;2023-12-04T08:19:44;6.32;;;2.97;;
66112;SDS011;52893;52.870;5.822;2023-12-04T08:22:12;6.00;;;2.08;;
66112;SDS011;52893;52.870;5.822;2023-12-04T08:24:41;3.95;;;1.90;;
66112;SDS011;52893;52.870;5.822;2023-12-04T08:27:08;3.88;;;2.78;;
66112;SDS011;52893;52.870;5.822;2023-12-04T08:29:36;16.17;;;5.45;;
66112;SDS011;52893;52.870;5.822;2023-12-04T08:32:06;10.15;;;5.07;;
66112;SDS011;52893;52.870;5.822;2023-12-04T08:34:33;10.70;;;3.97;;
66112;SDS011;52893;52.870;5.822;2023-12-04T08:37:01;5.50;;;2.22;;
66112;SDS011;52893;52.870;5.822;2023-12-04T08:39:28;3.15;;;1.98;;
66112;SDS011;52893;52.870;5.822;2023-12-04T08:41:58;3.35;;;1.60;;
66112;SDS011;52893;52.870;5.822;2023-12-04T08:44:25;6.78;;;2.60;;
66112;SDS011;52893;52.870;5.822;2023-12-04T08:46:53;6.57;;;3.00;;
66112;SDS011;52893;52.870;5.822;2023-12-04T08:49:20;4.47;;;1.88;;
66112;SDS011;52893;52.870;5.822;2023-12-04T08:51:51;3.10;;;1.88;;
66112;SDS011;52893;52.870;5.822;2023-12-04T08:54:20;3.70;;;1.20;;
66112;SDS011;52893;52.870;5.822;2023-12-04T08:56:49;2.00;;;1.27;;
66112;SDS011;52893;52.870;5.822;2023-12-04T08:59:18;3.40;;;1.33;;
66112;SDS011;52893;52.870;5.822;2023-12-04T09:01:46;6.30;;;2.50;;
66112;SDS011;52893;52.870;5.822;2023-12-04T09:04:14;5.88;;;2.13;;
66112;SDS011;52893;52.870;5.822;2023-12-04T09:06:42;3.80;;;2.25;;
66112;SDS011;52893;52.870;5.822;2023-12-04T09:09:09;10.40;;;3.40;;
66112;SDS011;52893;52.870;5.822;2023-12-04T09:11:40;2.75;;;1.90;;
66112;SDS011;52893;52.870;5.822;2023-12-04T09:14:08;2.85;;;1.80;;
66112;SDS011;52893;52.870;5.822;2023-12-04T09:16:37;7.55;;;1.95;;
66112;SDS011;52893;52.870;5.822;2023-12-04T09:19:05;5.45;;;2.80;;
66112;SDS011;52893;52.870;5.822;2023-12-04T09:21:32;4.90;;;1.50;;
66112;SDS011;52893;52.870;5.822;2023-12-04T09:24:01;2.08;;;1.30;;
66112;SDS011;52893;52.870;5.822;2023-12-04T09:26:29;2.15;;;1.23;;
66112;SDS011;52893;52.870;5.822;2023-12-04T09:28:56;5.22;;;1.88;;
66112;SDS011;52893;52.870;5.822;2023-12-04T09:31:24;2.25;;;1.77;;
66112;SDS011;52893;52.870;5.822;2023-12-04T09:33:53;3.47;;;2.17;;
66112;SDS011;52893;52.870;5.822;2023-12-04T09:36:21;4.90;;;2.33;;
66112;SDS011;52893;52.870;5.822;2023-12-04T09:38:48;5.85;;;3.55;;
66112;SDS011;52893;52.870;5.822;2023-12-04T09:41:17;2.58;;;1.63;;
66112;SDS011;52893;52.870;5.822;2023-12-04T09:43:45;1.17;;;0.98;;
66112;SDS011;52893;52.870;5.822;2023-12-04T09:46:14;4.43;;;1.90;;
66112;SDS011;52893;52.870;5.822;2023-12-04T09:48:43;3.50;;;1.45;;
66112;SDS011;52893;52.870;5.822;2023-12-04T09:51:12;4.55;;;2.33;;
66112;SDS011;52893;52.870;5.822;2023-12-04T09:53:41;4.85;;;1.67;;
66112;SDS011;52893;52.870;5.822;2023-12-04T09:56:08;2.78;;;2.03;;
66112;SDS011;52893;52.870;5.822;2023-12-04T09:58:39;2.72;;;1.92;;
66112;SDS011;52893;52.870;5.822;2023-12-04T10:01:08;3.17;;;1.98;;
66112;SDS011;52893;52.870;5.822;2023-12-04T10:03:38;1.67;;;1.33;;
66112;SDS011;52893;52.870;5.822;2023-12-04T10:06:07;2.10;;;1.10;;
66112;SDS011;52893;52.870;5.822;2023-12-04T10:08:38;3.55;;;1.73;;
66112;SDS011;52893;52.870;5.822;2023-12-04T10:11:05;5.22;;;2.05;;
66112;SDS011;52893;52.870;5.822;2023-12-04T10:13:32;5.03;;;1.38;;
66112;SDS011;52893;52.870;5.822;2023-12-04T10:16:01;3.10;;;2.05;;
66112;SDS011;52893;52.870;5.822;2023-12-04T10:18:31;2.58;;;1.50;;
66112;SDS011;52893;52.870;5.822;2023-12-04T10:21:00;3.20;;;1.02;;
66112;SDS011;52893;52.870;5.822;2023-12-04T10:23:36;5.03;;;2.28;;
66112;SDS011;52893;52.870;5.822;2023-12-04T10:26:07;1.70;;;1.20;;
66112;SDS011;52893;52.870;5.822;2023-12-04T10:28:35;3.15;;;1.63;;
66112;SDS011;52893;52.870;5.822;2023-12-04T10:31:02;4.10;;;1.67;;
66112;SDS011;52893;52.870;5.822;2023-12-04T10:33:32;3.78;;;1.63;;
66112;SDS011;52893;52.870;5.822;2023-12-04T10:36:01;2.85;;;1.60;;
66112;SDS011;52893;52.870;5.822;2023-12-04T10:38:30;2.97;;;1.92;;
66112;SDS011;52893;52.870;5.822;2023-12-04T10:40:59;5.63;;;1.50;;
66112;SDS011;52893;52.870;5.822;2023-12-04T10:43:46;3.20;;;2.40;;
66112;SDS011;52893;52.870;5.822;2023-12-04T10:46:14;1.58;;;1.33;;
66112;SDS011;52893;52.870;5.822;2023-12-04T10:48:43;3.80;;;1.30;;
66112;SDS011;52893;52.870;5.822;2023-12-04T10:51:12;2.78;;;1.67;;
66112;SDS011;52893;52.870;5.822;2023-12-04T10:53:39;3.88;;;1.23;;
66112;SDS011;52893;52.870;5.822;2023-12-04T10:56:14;1.02;;;0.82;;
66112;SDS011;52893;52.870;5.822;2023-12-04T10:58:46;1.88;;;1.30;;
66112;SDS011;52893;52.870;5.822;2023-12-04T11:01:18;1.88;;;1.17;;
66112;SDS011;52893;52.870;5.822;2023-12-04T11:03:51;4.32;;;1.38;;
66112;SDS011;52893;52.870;5.822;2023-12-04T11:06:20;3.90;;;1.77;;
66112;SDS011;52893;52.870;5.822;2023-12-04T11:08:51;4.30;;;1.40;;
66112;SDS011;52893;52.870;5.822;2023-12-04T11:11:30;1.15;;;1.05;;
66112;SDS011;52893;52.870;5.822;2023-12-04T11:14:04;6.50;;;2.63;;
66112;SDS011;52893;52.870;5.822;2023-12-04T11:16:34;2.10;;;1.10;;
66112;SDS011;52893;52.870;5.822;2023-12-04T11:19:06;1.70;;;1.10;;
66112;SDS011;52893;52.870;5.822;2023-12-04T11:21:45;2.78;;;1.20;;
66112;SDS011;52893;52.870;5.822;2023-12-04T11:24:12;2.83;;;1.73;;
66112;SDS011;52893;52.870;5.822;2023-12-04T11:26:42;6.38;;;1.70;;
66112;SDS011;52893;52.870;5.822;2023-12-04T11:29:11;3.78;;;1.75;;
66112;SDS011;52893;52.870;5.822;2023-12-04T11:31:40;3.22;;;1.45;;
66112;SDS011;52893;52.870;5.822;2023-12-04T11:34:08;2.92;;;1.83;;
66112;SDS011;52893;52.870;5.822;2023-12-04T11:36:38;11.82;;;1.38;;
66112;SDS011;52893;52.870;5.822;2023-12-04T11:39:08;4.15;;;1.75;;
66112;SDS011;52893;52.870;5.822;2023-12-04T11:41:37;3.63;;;2.13;;
66112;SDS011;52893;52.870;5.822;2023-12-04T11:44:09;2.40;;;1.63;;
66112;SDS011;52893;52.870;5.822;2023-12-04T11:46:39;1.42;;;1.10;;
66112;SDS011;52893;52.870;5.822;2023-12-04T11:51:55;3.58;;;1.58;;
66112;SDS011;52893;52.870;5.822;2023-12-04T11:54:22;3.22;;;1.20;;
66112;SDS011;52893;52.870;5.822;2023-12-04T11:56:58;1.77;;;1.15;;
66112;SDS011;52893;52.870;5.822;2023-12-04T11:59:28;4.20;;;2.28;;
66112;SDS011;52893;52.870;5.822;2023-12-04T12:01:56;3.50;;;2.13;;
66112;SDS011;52893;52.870;5.822;2023-12-04T12:04:25;5.82;;;1.63;;
66112;SDS011;52893;52.870;5.822;2023-12-04T12:06:53;2.13;;;1.10;;
66112;SDS011;52893;52.870;5.822;2023-12-04T12:09:20;3.00;;;1.55;;
66112;SDS011;52893;52.870;5.822;2023-12-04T12:11:51;2.60;;;1.33;;
66112;SDS011;52893;52.870;5.822;2023-12-04T12:14:20;2.42;;;1.67;;
66112;SDS011;52893;52.870;5.822;2023-12-04T12:16:50;1.92;;;1.33;;
66112;SDS011;52893;52.870;5.822;2023-12-04T12:19:16;6.70;;;2.28;;
66112;SDS011;52893;52.870;5.822;2023-12-04T12:21:47;3.47;;;1.50;;
66112;SDS011;52893;52.870;5.822;2023-12-04T12:24:17;6.55;;;3.40;;
66112;SDS011;52893;52.870;5.822;2023-12-04T12:26:45;3.95;;;2.05;;
66112;SDS011;52893;52.870;5.822;2023-12-04T12:29:13;11.02;;;3.13;;
66112;SDS011;52893;52.870;5.822;2023-12-04T12:31:41;3.33;;;1.52;;
66112;SDS011;52893;52.870;5.822;2023-12-04T12:34:10;3.95;;;1.73;;
66112;SDS011;52893;52.870;5.822;2023-12-04T12:36:38;5.35;;;2.67;;
66112;SDS011;52893;52.870;5.822;2023-12-04T12:39:06;17.95;;;4.28;;
66112;SDS011;52893;52.870;5.822;2023-12-04T12:41:34;11.25;;;3.83;;
66112;SDS011;52893;52.870;5.822;2023-12-04T12:44:01;17.63;;;4.38;;
66112;SDS011;52893;52.870;5.822;2023-12-04T12:46:30;10.43;;;3.78;;
66112;SDS011;52893;52.870;5.822;2023-12-04T12:48:57;6.93;;;2.63;;
66112;SDS011;52893;52.870;5.822;2023-12-04T12:51:27;7.70;;;3.45;;
66112;SDS011;52893;52.870;5.822;2023-12-04T12:53:56;7.05;;;2.50;;
66112;SDS011;52893;52.870;5.822;2023-12-04T12:56:24;2.05;;;1.40;;
66112;SDS011;52893;52.870;5.822;2023-12-04T12:58:52;2.50;;;1.70;;
66112;SDS011;52893;52.870;5.822;2023-12-04T13:01:25;3.42;;;1.45;;
66112;SDS011;52893;52.870;5.822;2023-12-04T13:03:57;4.40;;;1.73;;
66112;SDS011;52893;52.870;5.822;2023-12-04T13:06:25;4.70;;;2.92;;
66112;SDS011;52893;52.870;5.822;2023-12-04T13:08:54;7.72;;;2.15;;
66112;SDS011;52893;52.870;5.822;2023-12-04T13:11:21;2.80;;;1.50;;
66112;SDS011;52893;52.870;5.822;2023-12-04T13:13:49;1.73;;;1.30;;
66112;SDS011;52893;52.870;5.822;2023-12-04T13:16:16;1.45;;;1.13;;
66112;SDS011;52893;52.870;5.822;2023-12-04T13:18:43;3.38;;;1.83;;
66112;SDS011;52893;52.870;5.822;2023-12-04T13:21:11;2.63;;;1.10;;
66112;SDS011;52893;52.870;5.822;2023-12-04T13:23:41;4.00;;;1.50;;
66112;SDS011;52893;52.870;5.822;2023-12-04T13:26:09;4.45;;;2.58;;
66112;SDS011;52893;52.870;5.822;2023-12-04T13:28:37;7.18;;;2.70;;
66112;SDS011;52893;52.870;5.822;2023-12-04T13:31:06;6.15;;;1.52;;
66112;SDS011;52893;52.870;5.822;2023-12-04T13:33:35;2.35;;;1.55;;
66112;SDS011;52893;52.870;5.822;2023-12-04T13:36:04;4.47;;;2.00;;
66112;SDS011;52893;52.870;5.822;2023-12-04T13:38:32;2.47;;;1.30;;
66112;SDS011;52893;52.870;5.822;2023-12-04T13:41:03;4.57;;;1.52;;
66112;SDS011;52893;52.870;5.822;2023-12-04T13:43:55;2.05;;;1.33;;
66112;SDS011;52893;52.870;5.822;2023-12-04T13:46:25;2.15;;;1.23;;
66112;SDS011;52893;52.870;5.822;2023-12-04T13:48:55;5.35;;;2.08;;
66112;SDS011;52893;52.870;5.822;2023-12-04T13:51:24;3.33;;;2.05;;
66112;SDS011;52893;52.870;5.822;2023-12-04T13:53:53;1.95;;;1.40;;
66112;SDS011;52893;52.870;5.822;2023-12-04T13:56:30;2.85;;;1.80;;
66112;SDS011;52893;52.870;5.822;2023-12-04T13:59:10;2.85;;;1.38;;
66112;SDS011;52893;52.870;5.822;2023-12-04T14:01:44;2.78;;;1.38;;
66112;SDS011;52893;52.870;5.822;2023-12-04T14:04:11;3.13;;;2.13;;
66112;SDS011;52893;52.870;5.822;2023-12-04T14:06:39;4.18;;;1.73;;
66112;SDS011;52893;52.870;5.822;2023-12-04T14:09:07;4.32;;;2.15;;
66112;SDS011;52893;52.870;5.822;2023-12-04T14:11:37;2.92;;;1.48;;
66112;SDS011;52893;52.870;5.822;2023-12-04T14:14:05;2.13;;;1.33;;
66112;SDS011;52893;52.870;5.822;2023-12-04T14:16:33;2.65;;;1.38;;
66112;SDS011;52893;52.870;5.822;2023-12-04T14:19:00;4.75;;;2.05;;
66112;SDS011;52893;52.870;5.822;2023-12-04T14:21:28;5.93;;;2.20;;
66112;SDS011;52893;52.870;5.822;2023-12-04T14:23:55;3.00;;;1.98;;
66112;SDS011;52893;52.870;5.822;2023-12-04T14:26:23;3.22;;;1.45;;
66112;SDS011;52893;52.870;5.822;2023-12-04T14:28:54;3.85;;;2.22;;
66112;SDS011;52893;52.870;5.822;2023-12-04T14:31:23;3.80;;;2.05;;
66112;SDS011;52893;52.870;5.822;2023-12-04T14:33:51;4.43;;;1.48;;
66112;SDS011;52893;52.870;5.822;2023-12-04T14:36:22;3.78;;;1.55;;
66112;SDS011;52893;52.870;5.822;2023-12-04T14:38:51;1.55;;;1.08;;
66112;SDS011;52893;52.870;5.822;2023-12-04T14:41:19;3.45;;;1.27;;
66112;SDS011;52893;52.870;5.822;2023-12-04T14:43:46;3.85;;;1.95;;
66112;SDS011;52893;52.870;5.822;2023-12-04T14:46:16;2.88;;;1.25;;
66112;SDS011;52893;52.870;5.822;2023-12-04T14:48:45;5.05;;;2.35;;
66112;SDS011;52893;52.870;5.822;2023-12-04T14:51:13;12.25;;;2.53;;
66112;SDS011;52893;52.870;5.822;2023-12-04T14:53:41;3.22;;;1.55;;
66112;SDS011;52893;52.870;5.822;2023-12-04T14:56:15;2.08;;;1.55;;